Flight Track Log - Related Links

Times and Time Zones

All times are in EDT time to prevent confusion due to time zone crossing. See the AMF1026 flight status page for this flight to view local times or setup timezone preferences in your user account.

Time Position Orientation Groundspeed Altitude Reporting Facility
EDT Latitude Longitude Course Direction KTS MPH feet Rate Location/Type
Wed 09:15:55 PM 42.7236 -73.8081 253° West 147 169 1,000  Level Boston Center
Wed 09:17:08 PM 42.7103 -73.8669 253° West 202 232 2,700 1,500 Climbing Boston Center
Wed 09:17:43 PM 42.7181 -73.9125 283° West 175 201 3,700 1,516 Climbing Boston Center
Wed 09:18:43 PM 42.7319 -73.9750 287° West 187 215 5,100 1,450 Climbing Boston Center
Wed 09:19:43 PM 42.7433 -74.0403 283° West 187 215 6,600 1,300 Climbing Boston Center
Wed 09:20:43 PM 42.7467 -74.1081 274° West 182 209 7,700 1,200 Climbing Boston Center
Wed 09:21:43 PM 42.7456 -74.1844 269° West 182 209 9,000 1,150 Climbing Boston Center
Wed 09:22:43 PM 42.7444 -74.2553 269° West 187 215 10,000 1,100 Climbing Boston Center
Wed 09:23:43 PM 42.7436 -74.3003 269° West 187 215 11,200 1,000 Climbing Boston Center
Wed 09:24:43 PM 42.7194 -74.3844 249° West 187 215 12,000 400 Climbing Boston Center
Wed 09:25:43 PM 42.6867 -74.4681 242° Southwest 220 253 12,000  Level Boston Center
Wed 09:26:43 PM 42.6561 -74.5406 240° Southwest 246 283 12,000  Level Boston Center
Wed 09:27:43 PM 42.6189 -74.6325 241° Southwest 251 289 12,000  Level Boston Center
Wed 09:28:43 PM 42.5925 -74.7019 243° Southwest 256 295 12,000  Level Boston Center
Wed 09:29:43 PM 42.5550 -74.8078 244° Southwest 261 300 12,000  Level Boston Center
Wed 09:30:43 PM 42.5219 -74.8939 243° Southwest 268 308 12,000  Level Boston Center
Wed 09:31:43 PM 42.5053 -74.9889 257° West 268 308 12,000  Level Boston Center
Wed 09:32:43 PM 42.4886 -75.0811 256° West 263 303 12,000  Level Boston Center
Wed 09:33:43 PM 42.4764 -75.1539 257° West 263 303 12,000  Level Boston Center
Wed 09:34:43 PM 42.4589 -75.2714 259° West 258 297 12,000  Level Boston Center
Wed 09:35:43 PM 42.4275 -75.3572 244° Southwest 263 303 12,000  Level Boston Center
Wed 09:37:41 PM 42.3514 -75.5097 236° Southwest 253 291 12,000  Level New York Center
Wed 09:38:39 PM 42.3125 -75.5939 238° Southwest 259 298 12,000 -51 Level New York Center
Wed 09:39:39 PM 42.2717 -75.6778 237° Southwest 265 305 11,900  Descending New York Center
Wed 09:40:40 PM 42.2328 -75.7617 238° Southwest 265 305 12,000 50 Climbing New York Center
Wed 09:41:40 PM 42.1936 -75.8483 239° Southwest 265 305 12,000 -50 Level New York Center
Wed 09:42:41 PM 42.1733 -75.9361 253° West 260 299 11,900  Descending New York Center
Wed 09:43:40 PM 42.1647 -76.0333 263° West 260 299 12,000 50 Climbing New York Center
Wed 09:44:41 PM 42.1564 -76.1306 263° West 260 299 12,000  Level New York Center
Wed 09:45:41 PM 42.1375 -76.2269 255° West 266 306 12,000 -51 Level New York Center
Wed 09:46:39 PM 42.1064 -76.3139 244° Southwest 266 306 11,900  Descending New York Center
Wed 09:47:40 PM 42.0750 -76.4033 245° Southwest 266 306 12,000 50 Climbing New York Center
Wed 09:48:39 PM 42.0436 -76.4931 245° Southwest 266 306 12,000  Level New York Center
Wed 09:49:40 PM 42.0167 -76.5800 247° West 271 312 12,000  Level New York Center
Wed 09:50:41 PM 41.9831 -76.6692 243° Southwest 271 312 12,000  Level New York Center
Wed 09:51:39 PM 41.9514 -76.7583 244° Southwest 271 312 12,000  Level New York Center
Wed 09:52:41 PM 41.9200 -76.8475 245° Southwest 271 312 12,000  Level New York Center
Wed 09:53:35 PM 41.8919 -76.9400 248° West 273 314 12,000  Level Cleveland Center
Wed 09:54:35 PM 41.8608 -77.0169 242° Southwest 260 299 12,000  Level Cleveland Center
Wed 09:55:35 PM 41.8303 -77.1050 245° Southwest 260 299 12,000  Level Cleveland Center
Wed 09:56:35 PM 41.7975 -77.1933 244° Southwest 260 299 12,000  Level Cleveland Center
Wed 09:57:35 PM 41.7644 -77.2814 243° Southwest 260 299 12,000  Level Cleveland Center
Wed 09:58:35 PM 41.7314 -77.3664 242° Southwest 260 299 12,000 -50 Level Cleveland Center
Wed 09:59:35 PM 41.7006 -77.4542 245° Southwest 260 299 11,900 50 Descending Cleveland Center
Wed 10:00:35 PM 41.6594 -77.5508 240° Southwest 265 305 12,100 50 Climbing Cleveland Center
Wed 10:01:35 PM 41.6283 -77.6356 244° Southwest 265 305 12,000 -50 Descending Cleveland Center
Wed 10:02:35 PM 41.5950 -77.7231 243° Southwest 270 311 12,000  Level Cleveland Center
Wed 10:03:35 PM 41.5617 -77.8136 244° Southwest 270 311 12,000 50 Level Cleveland Center
Wed 10:04:35 PM 41.5306 -77.9008 245° Southwest 265 305 12,100 50 Climbing Cleveland Center
Wed 10:05:34 PM 41.4969 -77.9881 243° Southwest 265 305 12,100 -50 Level Cleveland Center
Wed 10:06:35 PM 41.4678 -78.0753 246° West 265 305 12,000 -50 Descending Cleveland Center
Wed 10:07:35 PM 41.4383 -78.1622 246° West 265 305 12,000 50 Level Cleveland Center
Wed 10:08:35 PM 41.4131 -78.2492 249° West 265 305 12,100  Climbing Cleveland Center
Wed 10:09:35 PM 41.3836 -78.3386 246° West 260 299 12,000 -50 Descending Cleveland Center
Wed 10:10:35 PM 41.3583 -78.4308 250° West 260 299 12,000  Level Cleveland Center
Wed 10:11:35 PM 41.3328 -78.5203 249° West 260 299 12,000 50 Level Cleveland Center
Wed 10:12:35 PM 41.3008 -78.6069 244° Southwest 260 299 12,100 50 Climbing Cleveland Center
Wed 10:13:35 PM 41.2753 -78.6989 250° West 260 299 12,100  Level Cleveland Center
Wed 10:14:35 PM 41.2497 -78.7881 249° West 255 293 12,100  Level Cleveland Center
Wed 10:15:35 PM 41.2219 -78.8769 247° West 255 293 12,100 -50 Level Cleveland Center
Wed 10:16:35 PM 41.1981 -78.9578 249° West 255 293 12,000  Descending Cleveland Center
Wed 10:17:35 PM 41.1722 -79.0439 248° West 255 293 12,100 50 Climbing Cleveland Center
Wed 10:18:35 PM 41.1442 -79.1356 248° West 255 293 12,100 -50 Level Cleveland Center
Wed 10:19:35 PM 41.1183 -79.2381 252° West 260 299 12,000 -100 Descending Cleveland Center
Wed 10:20:35 PM 41.0922 -79.3267 249° West 265 305 11,900 -50 Descending Cleveland Center
Wed 10:21:35 PM 41.0661 -79.4128 248° West 265 305 11,900 50 Level Cleveland Center
Wed 10:22:35 PM 41.0397 -79.5011 248° West 265 305 12,000  Climbing Cleveland Center
Wed 10:23:35 PM 41.0133 -79.5897 248° West 260 299 11,900 -50 Descending Cleveland Center
Wed 10:24:35 PM 40.9869 -79.6781 248° West 260 299 11,900 50 Level Cleveland Center
Wed 10:25:35 PM 40.9586 -79.7664 247° West 260 299 12,000  Climbing Cleveland Center
Wed 10:26:35 PM 40.9319 -79.8547 248° West 260 299 11,900 -50 Descending Cleveland Center
Wed 10:27:35 PM 40.9075 -79.9458 250° West 260 299 11,900 50 Level Cleveland Center
Wed 10:28:35 PM 40.8789 -80.0339 247° West 260 299 12,000 50 Climbing Cleveland Center
Wed 10:29:35 PM 40.8542 -80.1219 250° West 271 312 12,000  Level Cleveland Center
Wed 10:30:35 PM 40.8275 -80.2100 248° West 277 319 12,000 -50 Level Cleveland Center
Wed 10:31:35 PM 40.7964 -80.2950 244° Southwest 271 312 11,900  Descending Cleveland Center
Wed 10:32:35 PM 40.7569 -80.3667 234° Southwest 265 305 12,000 50 Climbing Cleveland Center
Wed 10:33:35 PM 40.7111 -80.4433 232° Southwest 270 311 12,000  Level Cleveland Center
Wed 10:34:35 PM 40.6675 -80.5147 231° Southwest 270 311 12,000 -50 Level Cleveland Center
Wed 10:35:35 PM 40.6239 -80.5914 233° Southwest 270 311 11,900 -50 Descending Cleveland Center
Wed 10:36:35 PM 40.5758 -80.6650 229° Southwest 258 297 11,900 -500 Level Cleveland Center
Wed 10:37:35 PM 40.5297 -80.7389 231° Southwest 258 297 10,900 -950 Descending Cleveland Center
Wed 10:38:35 PM 40.4839 -80.8178 233° Southwest 263 303 10,000 -900 Descending Cleveland Center
Wed 10:39:35 PM 40.4419 -80.8942 234° Southwest 269 310 9,100 -950 Descending Cleveland Center
Wed 10:40:35 PM 40.4022 -80.9675 235° Southwest 274 315 8,100 -950 Descending Cleveland Center
Wed 10:41:35 PM 40.3600 -81.0436 234° Southwest 274 315 7,200 -850 Descending Cleveland Center
Wed 10:42:35 PM 40.3203 -81.1222 236° Southwest 268 308 6,400 -600 Descending Cleveland Center
Wed 10:43:35 PM 40.2761 -81.1900 230° Southwest 268 308 6,000 -182 Descending Cleveland Center
Wed 10:44:47 PM 40.2192 -81.2847 232° Southwest 246 283 6,000 -45 Level Indianapolis Center
Wed 10:45:48 PM 40.1819 -81.3417 229° Southwest 244 281 5,900 -49 Descending Indianapolis Center
Wed 10:46:49 PM 40.1506 -81.4339 246° West 232 267 5,900  Level Indianapolis Center
Wed 10:47:50 PM 40.1361 -81.5097 256° West 217 250 5,900  Level Indianapolis Center
Wed 10:48:51 PM 40.1319 -81.5914 266° West 224 258 5,900  Level Indianapolis Center
Wed 10:49:52 PM 40.1131 -81.6756 254° West 240 276 5,900  Level Indianapolis Center
Wed 10:50:53 PM 40.0867 -81.7608 248° West 249 287 5,900  Level Indianapolis Center
Wed 10:51:54 PM 40.0617 -81.8375 247° West 247 284 5,900  Level Indianapolis Center
Wed 10:52:55 PM 40.0356 -81.9228 248° West 251 289 5,900  Level Indianapolis Center
Wed 10:53:56 PM 40.0081 -82.0075 247° West 250 288 5,900  Level Indianapolis Center
Wed 10:54:57 PM 39.9800 -82.0911 246° West 251 289 5,900 45 Level Indianapolis Center
Wed 10:56:10 PM 39.9436 -82.2022 247° West 253 291 6,000 50 Climbing Indianapolis Center
Wed 10:56:58 PM 39.9256 -82.2631 249° West 255 293 6,000  Level Indianapolis Center
Wed 10:57:59 PM 39.8933 -82.3478 244° Southwest 258 297 6,000  Level Indianapolis Center
Wed 10:59:00 PM 39.8628 -82.4497 249° West 258 297 6,000  Level Indianapolis Center
Wed 11:00:01 PM 39.8350 -82.5364 247° West 257 296 6,000  Level Indianapolis Center
Wed 11:01:02 PM 39.8103 -82.6233 250° West 255 293 6,000  Level Indianapolis Center
Wed 11:02:03 PM 39.7819 -82.7103 247° West 258 297 6,000  Level Indianapolis Center
Wed 11:03:04 PM 39.7581 -82.7969 250° West 255 293 6,000  Level Indianapolis Center
Wed 11:04:03 PM 39.7344 -82.8825 250° West 254 292 6,000  Level Indianapolis Center
Wed 11:05:06 PM 39.7025 -82.9692 244° Southwest 254 292 6,000  Level Indianapolis Center
Wed 11:06:07 PM 39.6706 -83.0525 244° Southwest 255 293 6,000  Level Indianapolis Center
Wed 11:07:05 PM 39.6397 -83.1344 244° Southwest 259 298 6,000  Level Indianapolis Center
Wed 11:08:06 PM 39.6128 -83.2206 248° West 260 299 6,000  Level Indianapolis Center
Wed 11:09:11 PM 39.5850 -83.3114 248° West 257 296 6,000  Level Indianapolis Center
Wed 11:10:07 PM 39.5606 -83.3956 249° West 255 293 6,000  Level Indianapolis Center
Wed 11:11:08 PM 39.5333 -83.4789 247° West 253 291 6,000  Level Indianapolis Center
Wed 11:12:15 PM 39.5033 -83.5753 248° West 257 296 6,000  Level Indianapolis Center
Wed 11:13:09 PM 39.4786 -83.6533 248° West 254 292 6,000  Level Indianapolis Center
Wed 11:14:16 PM 39.4494 -83.7411 247° West 255 293 6,000  Level Indianapolis Center
Wed 11:15:17 PM 39.4247 -83.8256 249° West 252 290 6,000  Level Indianapolis Center
Wed 11:16:18 PM 39.3961 -83.9081 246° West 250 288 6,000  Level Indianapolis Center
Wed 11:17:19 PM 39.3608 -83.9878 240° Southwest 251 289 6,000  Level Indianapolis Center
Wed 11:18:20 PM 39.3314 -84.0686 245° Southwest 250 288 6,000  Level Indianapolis Center
Wed 11:19:22 PM 39.3222 -84.1603 263° West 252 290 6,000  Level Indianapolis Center
Wed 11:20:22 PM 39.3117 -84.2511 261° West 253 291 6,000  Level Indianapolis Center
Wed 11:21:23 PM 39.2983 -84.3378 259° West 248 285 6,000  Level Indianapolis Center
Wed 11:22:24 PM 39.2881 -84.4158 260° West 226 260 6,000  Level Indianapolis Center
Wed 11:23:25 PM 39.2764 -84.4972 260° West 226 260 6,000 -344 Level Indianapolis Center
Wed 11:24:26 PM 39.2675 -84.5700 261° West 211 243 5,300 -976 Descending Indianapolis Center
Wed 11:25:28 PM 39.2575 -84.6344 259° West 191 220 4,000 -829 Descending Indianapolis Center
Wed 11:26:29 PM 39.2375 -84.6922 246° West 184 212 3,600 -621 Descending Indianapolis Center
Wed 11:28:51 PM 39.1167 -84.6667 171° South 129 148 1,900 -680 Descending Cincinnati TRACON
Wed 11:29:52 PM 39.0833 -84.6667 180° South 122 140 1,300 -590 Descending Cincinnati TRACON
Wed 11:31:00 PM 39.0488 -84.6678 176° South  Level Estimated

Login

Don't have an account? Register now (free) for customized features, flight alerts, and more!